sensor_id;sensor_type;location;lat;lon;timestamp;temperature;humidity
11214;DHT22;5664;48.606;13.456;2024-03-23T00:52:30;19.60;76.50
11214;DHT22;5664;48.606;13.456;2024-03-23T00:54:55;19.80;78.00
11214;DHT22;5664;48.606;13.456;2024-03-23T00:57:21;19.10;77.40
11214;DHT22;5664;48.606;13.456;2024-03-23T00:59:46;19.70;77.60
11214;DHT22;5664;48.606;13.456;2024-03-23T01:02:12;19.90;77.40
11214;DHT22;5664;48.606;13.456;2024-03-23T01:04:37;20.00;77.50
11214;DHT22;5664;48.606;13.456;2024-03-23T01:07:03;19.80;77.30
11214;DHT22;5664;48.606;13.456;2024-03-23T01:09:28;19.60;77.10
11214;DHT22;5664;48.606;13.456;2024-03-23T01:11:54;19.60;79.10
11214;DHT22;5664;48.606;13.456;2024-03-23T01:14:19;19.60;80.60
11214;DHT22;5664;48.606;13.456;2024-03-23T01:16:45;19.70;81.10
11214;DHT22;5664;48.606;13.456;2024-03-23T01:19:10;19.80;81.00
11214;DHT22;5664;48.606;13.456;2024-03-23T01:21:36;19.80;81.00
11214;DHT22;5664;48.606;13.456;2024-03-23T01:24:01;19.80;81.20
11214;DHT22;5664;48.606;13.456;2024-03-23T01:26:26;19.50;80.60
11214;DHT22;5664;48.606;13.456;2024-03-23T01:28:52;19.50;80.20
11214;DHT22;5664;48.606;13.456;2024-03-23T01:31:18;19.50;80.30
11214;DHT22;5664;48.606;13.456;2024-03-23T01:33:43;19.90;80.80
11214;DHT22;5664;48.606;13.456;2024-03-23T01:36:08;19.70;80.70
11214;DHT22;5664;48.606;13.456;2024-03-23T01:38:34;19.70;80.70
11214;DHT22;5664;48.606;13.456;2024-03-23T01:40:59;19.60;80.60
11214;DHT22;5664;48.606;13.456;2024-03-23T01:43:25;19.70;80.80
11214;DHT22;5664;48.606;13.456;2024-03-23T01:45:50;19.60;80.70
11214;DHT22;5664;48.606;13.456;2024-03-23T01:48:19;19.50;80.60
11214;DHT22;5664;48.606;13.456;2024-03-23T01:50:44;19.60;80.50
11214;DHT22;5664;48.606;13.456;2024-03-23T01:53:10;19.50;81.10
11214;DHT22;5664;48.606;13.456;2024-03-23T01:55:35;19.40;80.70
11214;DHT22;5664;48.606;13.456;2024-03-23T01:58:01;19.60;81.00
11214;DHT22;5664;48.606;13.456;2024-03-23T02:00:26;19.60;81.20
11214;DHT22;5664;48.606;13.456;2024-03-23T02:02:53;19.40;81.20
11214;DHT22;5664;48.606;13.456;2024-03-23T02:05:18;19.50;81.50
11214;DHT22;5664;48.606;13.456;2024-03-23T02:07:44;19.70;81.50
11214;DHT22;5664;48.606;13.456;2024-03-23T02:10:09;19.90;81.30
11214;DHT22;5664;48.606;13.456;2024-03-23T02:12:35;19.30;81.10
11214;DHT22;5664;48.606;13.456;2024-03-23T02:15:01;19.50;81.50
11214;DHT22;5664;48.606;13.456;2024-03-23T02:17:27;19.50;81.40
11214;DHT22;5664;48.606;13.456;2024-03-23T02:19:52;19.30;80.90
11214;DHT22;5664;48.606;13.456;2024-03-23T02:22:18;19.60;81.40
11214;DHT22;5664;48.606;13.456;2024-03-23T02:24:43;19.40;81.30
11214;DHT22;5664;48.606;13.456;2024-03-23T02:27:09;19.80;81.70
11214;DHT22;5664;48.606;13.456;2024-03-23T02:29:34;19.40;81.50
11214;DHT22;5664;48.606;13.456;2024-03-23T02:32:00;19.30;81.40
11214;DHT22;5664;48.606;13.456;2024-03-23T02:34:26;19.10;95.00
11214;DHT22;5664;48.606;13.456;2024-03-23T02:36:52;19.40;97.80
11214;DHT22;5664;48.606;13.456;2024-03-23T02:39:17;19.40;96.90
11214;DHT22;5664;48.606;13.456;2024-03-23T02:41:43;19.10;96.80
11214;DHT22;5664;48.606;13.456;2024-03-23T02:44:08;19.40;97.60
11214;DHT22;5664;48.606;13.456;2024-03-23T02:46:37;19.30;96.30
11214;DHT22;5664;48.606;13.456;2024-03-23T02:49:03;19.30;95.60
11214;DHT22;5664;48.606;13.456;2024-03-23T02:51:29;19.30;94.70
11214;DHT22;5664;48.606;13.456;2024-03-23T02:53:55;19.10;93.80
11214;DHT22;5664;48.606;13.456;2024-03-23T02:56:20;19.40;93.00
11214;DHT22;5664;48.606;13.456;2024-03-23T02:58:46;19.10;92.80
11214;DHT22;5664;48.606;13.456;2024-03-23T03:01:11;19.20;92.50
11214;DHT22;5664;48.606;13.456;2024-03-23T03:03:37;19.20;92.50
11214;DHT22;5664;48.606;13.456;2024-03-23T03:06:02;19.20;92.30
11214;DHT22;5664;48.606;13.456;2024-03-23T03:08:28;19.10;92.20
11214;DHT22;5664;48.606;13.456;2024-03-23T03:10:54;19.20;91.90
11214;DHT22;5664;48.606;13.456;2024-03-23T03:13:19;19.20;91.70
11214;DHT22;5664;48.606;13.456;2024-03-23T03:15:45;19.20;91.60
11214;DHT22;5664;48.606;13.456;2024-03-23T03:18:10;19.10;91.60
11214;DHT22;5664;48.606;13.456;2024-03-23T03:20:39;19.10;91.80
11214;DHT22;5664;48.606;13.456;2024-03-23T03:23:05;19.00;90.60
11214;DHT22;5664;48.606;13.456;2024-03-23T03:25:30;19.60;91.40
11214;DHT22;5664;48.606;13.456;2024-03-23T03:27:56;19.10;93.20
11214;DHT22;5664;48.606;13.456;2024-03-23T03:30:21;18.90;90.00
11214;DHT22;5664;48.606;13.456;2024-03-23T03:32:47;19.40;90.40
11214;DHT22;5664;48.606;13.456;2024-03-23T03:35:12;19.10;90.50
11214;DHT22;5664;48.606;13.456;2024-03-23T03:37:38;19.30;90.50
11214;DHT22;5664;48.606;13.456;2024-03-23T03:40:03;18.90;90.10
11214;DHT22;5664;48.606;13.456;2024-03-23T03:42:29;18.90;90.30
11214;DHT22;5664;48.606;13.456;2024-03-23T03:44:54;19.00;90.10
11214;DHT22;5664;48.606;13.456;2024-03-23T03:47:20;19.10;90.40
11214;DHT22;5664;48.606;13.456;2024-03-23T03:49:45;19.10;90.10
11214;DHT22;5664;48.606;13.456;2024-03-23T03:52:10;19.30;90.10
11214;DHT22;5664;48.606;13.456;2024-03-23T03:54:36;19.10;90.00
11214;DHT22;5664;48.606;13.456;2024-03-23T03:57:01;19.20;90.00
11214;DHT22;5664;48.606;13.456;2024-03-23T03:59:27;18.80;88.00
11214;DHT22;5664;48.606;13.456;2024-03-23T04:01:52;19.00;89.90
11214;DHT22;5664;48.606;13.456;2024-03-23T04:04:18;19.10;89.80
11214;DHT22;5664;48.606;13.456;2024-03-23T04:06:43;19.00;89.80
11214;DHT22;5664;48.606;13.456;2024-03-23T04:09:09;18.90;89.60
11214;DHT22;5664;48.606;13.456;2024-03-23T04:11:35;18.90;89.50
11214;DHT22;5664;48.606;13.456;2024-03-23T04:14:01;18.90;89.40
11214;DHT22;5664;48.606;13.456;2024-03-23T04:16:27;18.80;89.20
11214;DHT22;5664;48.606;13.456;2024-03-23T04:18:53;19.00;89.00
11214;DHT22;5664;48.606;13.456;2024-03-23T04:21:19;18.90;89.50
11214;DHT22;5664;48.606;13.456;2024-03-23T04:23:44;19.10;89.10
11214;DHT22;5664;48.606;13.456;2024-03-23T04:26:10;18.90;89.40
11214;DHT22;5664;48.606;13.456;2024-03-23T04:28:35;19.00;89.60
11214;DHT22;5664;48.606;13.456;2024-03-23T04:31:03;18.80;89.10
11214;DHT22;5664;48.606;13.456;2024-03-23T04:33:28;19.10;89.10
11214;DHT22;5664;48.606;13.456;2024-03-23T04:35:54;17.80;89.00
11214;DHT22;5664;48.606;13.456;2024-03-23T04:38:19;18.70;89.30
11214;DHT22;5664;48.606;13.456;2024-03-23T04:40:45;19.00;89.30
11214;DHT22;5664;48.606;13.456;2024-03-23T04:43:19;18.80;89.20
11214;DHT22;5664;48.606;13.456;2024-03-23T04:45:44;19.10;89.70
11214;DHT22;5664;48.606;13.456;2024-03-23T04:48:10;18.90;87.50
11214;DHT22;5664;48.606;13.456;2024-03-23T04:50:35;18.80;86.50
11214;DHT22;5664;48.606;13.456;2024-03-23T04:53:01;18.80;86.10
11214;DHT22;5664;48.606;13.456;2024-03-23T04:55:26;18.50;88.90
11214;DHT22;5664;48.606;13.456;2024-03-23T04:57:53;18.70;85.40
11214;DHT22;5664;48.606;13.456;2024-03-23T05:00:18;18.70;85.50
11214;DHT22;5664;48.606;13.456;2024-03-23T05:02:44;18.50;84.80
11214;DHT22;5664;48.606;13.456;2024-03-23T05:05:10;18.70;84.60
11214;DHT22;5664;48.606;13.456;2024-03-23T05:07:36;19.00;84.60
11214;DHT22;5664;48.606;13.456;2024-03-23T05:10:01;18.50;84.50
11214;DHT22;5664;48.606;13.456;2024-03-23T05:12:27;18.60;84.60
11214;DHT22;5664;48.606;13.456;2024-03-23T05:14:52;18.60;84.40
11214;DHT22;5664;48.606;13.456;2024-03-23T05:17:18;18.60;84.80
11214;DHT22;5664;48.606;13.456;2024-03-23T05:19:43;18.70;85.40
11214;DHT22;5664;48.606;13.456;2024-03-23T05:22:09;18.90;85.30
11214;DHT22;5664;48.606;13.456;2024-03-23T05:24:35;18.70;85.00
11214;DHT22;5664;48.606;13.456;2024-03-23T05:27:00;18.60;85.20
11214;DHT22;5664;48.606;13.456;2024-03-23T05:29:26;18.70;85.30
11214;DHT22;5664;48.606;13.456;2024-03-23T05:31:52;18.90;85.50
11214;DHT22;5664;48.606;13.456;2024-03-23T05:34:17;18.60;85.40
11214;DHT22;5664;48.606;13.456;2024-03-23T05:36:43;18.60;85.70
11214;DHT22;5664;48.606;13.456;2024-03-23T05:39:08;18.60;85.40
11214;DHT22;5664;48.606;13.456;2024-03-23T05:41:34;18.60;85.30
11214;DHT22;5664;48.606;13.456;2024-03-23T05:44:02;18.50;85.10
11214;DHT22;5664;48.606;13.456;2024-03-23T05:46:27;18.40;85.30
11214;DHT22;5664;48.606;13.456;2024-03-23T05:48:52;18.60;85.40
11214;DHT22;5664;48.606;13.456;2024-03-23T05:51:19;18.30;84.20
11214;DHT22;5664;48.606;13.456;2024-03-23T05:53:44;18.50;85.50
11214;DHT22;5664;48.606;13.456;2024-03-23T05:56:10;18.40;85.70
11214;DHT22;5664;48.606;13.456;2024-03-23T05:58:35;18.50;86.10
11214;DHT22;5664;48.606;13.456;2024-03-23T06:01:01;18.40;86.00
11214;DHT22;5664;48.606;13.456;2024-03-23T06:03:27;18.30;86.00
11214;DHT22;5664;48.606;13.456;2024-03-23T06:05:53;18.30;85.90
11214;DHT22;5664;48.606;13.456;2024-03-23T06:08:18;18.50;86.20
11214;DHT22;5664;48.606;13.456;2024-03-23T06:10:44;18.30;85.20
11214;DHT22;5664;48.606;13.456;2024-03-23T06:13:10;18.60;85.80
11214;DHT22;5664;48.606;13.456;2024-03-23T06:15:35;18.90;86.50
11214;DHT22;5664;48.606;13.456;2024-03-23T06:18:03;18.70;86.20
11214;DHT22;5664;48.606;13.456;2024-03-23T06:20:29;18.40;86.60
11214;DHT22;5664;48.606;13.456;2024-03-23T06:22:54;18.60;86.60
11214;DHT22;5664;48.606;13.456;2024-03-23T06:25:20;18.90;86.80
11214;DHT22;5664;48.606;13.456;2024-03-23T06:27:45;18.50;85.30
11214;DHT22;5664;48.606;13.456;2024-03-23T06:30:11;18.80;86.50
11214;DHT22;5664;48.606;13.456;2024-03-23T06:32:36;18.70;86.00
11214;DHT22;5664;48.606;13.456;2024-03-23T06:35:02;19.10;86.80
11214;DHT22;5664;48.606;13.456;2024-03-23T06:37:33;18.80;86.70
11214;DHT22;5664;48.606;13.456;2024-03-23T06:39:59;19.20;86.90
11214;DHT22;5664;48.606;13.456;2024-03-23T06:42:24;18.90;86.90
11214;DHT22;5664;48.606;13.456;2024-03-23T06:44:50;19.10;87.10
11214;DHT22;5664;48.606;13.456;2024-03-23T06:47:15;19.50;87.10
11214;DHT22;5664;48.606;13.456;2024-03-23T06:49:41;19.20;87.10
11214;DHT22;5664;48.606;13.456;2024-03-23T06:52:06;19.20;87.20
11214;DHT22;5664;48.606;13.456;2024-03-23T06:54:31;19.30;87.00
11214;DHT22;5664;48.606;13.456;2024-03-23T06:56:57;19.30;87.30
11214;DHT22;5664;48.606;13.456;2024-03-23T06:59:22;19.40;87.10
11214;DHT22;5664;48.606;13.456;2024-03-23T07:01:48;19.30;87.10
11214;DHT22;5664;48.606;13.456;2024-03-23T07:04:13;19.30;86.90
11214;DHT22;5664;48.606;13.456;2024-03-23T07:06:42;19.00;87.10
11214;DHT22;5664;48.606;13.456;2024-03-23T07:09:08;19.20;86.00
11214;DHT22;5664;48.606;13.456;2024-03-23T07:11:33;19.50;87.50
11214;DHT22;5664;48.606;13.456;2024-03-23T07:13:59;19.50;87.40
11214;DHT22;5664;48.606;13.456;2024-03-23T07:16:24;19.30;87.30
11214;DHT22;5664;48.606;13.456;2024-03-23T07:18:51;19.60;87.30
11214;DHT22;5664;48.606;13.456;2024-03-23T07:21:17;19.70;87.70
11214;DHT22;5664;48.606;13.456;2024-03-23T07:23:42;19.30;87.40
11214;DHT22;5664;48.606;13.456;2024-03-23T07:26:11;19.20;86.80
11214;DHT22;5664;48.606;13.456;2024-03-23T07:28:37;19.60;87.50
11214;DHT22;5664;48.606;13.456;2024-03-23T07:31:04;19.60;87.20
11214;DHT22;5664;48.606;13.456;2024-03-23T07:33:30;19.50;87.40
11214;DHT22;5664;48.606;13.456;2024-03-23T07:35:55;19.70;90.90
11214;DHT22;5664;48.606;13.456;2024-03-23T07:38:21;19.80;88.00
11214;DHT22;5664;48.606;13.456;2024-03-23T07:40:46;19.80;87.80
11214;DHT22;5664;48.606;13.456;2024-03-23T07:43:12;19.90;88.30
11214;DHT22;5664;48.606;13.456;2024-03-23T07:45:37;19.90;88.00
11214;DHT22;5664;48.606;13.456;2024-03-23T07:48:03;20.00;88.10
11214;DHT22;5664;48.606;13.456;2024-03-23T07:50:29;20.00;87.80
11214;DHT22;5664;48.606;13.456;2024-03-23T07:52:54;20.10;88.30
11214;DHT22;5664;48.606;13.456;2024-03-23T07:55:20;20.20;88.10
11214;DHT22;5664;48.606;13.456;2024-03-23T07:57:46;20.20;87.90
11214;DHT22;5664;48.606;13.456;2024-03-23T08:00:12;20.40;88.40
11214;DHT22;5664;48.606;13.456;2024-03-23T08:02:38;20.30;87.40
11214;DHT22;5664;48.606;13.456;2024-03-23T08:05:04;20.60;87.90
11214;DHT22;5664;48.606;13.456;2024-03-23T08:07:29;20.40;86.20
11214;DHT22;5664;48.606;13.456;2024-03-23T08:09:55;20.50;90.70
11214;DHT22;5664;48.606;13.456;2024-03-23T08:12:20;20.60;87.20
11214;DHT22;5664;48.606;13.456;2024-03-23T08:14:46;20.70;87.00
11214;DHT22;5664;48.606;13.456;2024-03-23T08:17:11;20.90;87.10
11214;DHT22;5664;48.606;13.456;2024-03-23T08:19:37;20.90;86.90
11214;DHT22;5664;48.606;13.456;2024-03-23T08:22:02;20.90;86.70
11214;DHT22;5664;48.606;13.456;2024-03-23T08:24:28;21.00;86.30
11214;DHT22;5664;48.606;13.456;2024-03-23T08:26:54;21.10;86.00
11214;DHT22;5664;48.606;13.456;2024-03-23T08:29:19;21.20;85.70
11214;DHT22;5664;48.606;13.456;2024-03-23T08:31:45;21.40;85.70
11214;DHT22;5664;48.606;13.456;2024-03-23T08:34:10;21.30;85.40
11214;DHT22;5664;48.606;13.456;2024-03-23T08:36:36;21.30;85.00
11214;DHT22;5664;48.606;13.456;2024-03-23T08:39:01;21.50;85.00
11214;DHT22;5664;48.606;13.456;2024-03-23T08:41:27;21.40;84.60
11214;DHT22;5664;48.606;13.456;2024-03-23T08:43:52;21.30;82.80
11214;DHT22;5664;48.606;13.456;2024-03-23T08:46:18;21.40;84.00
11214;DHT22;5664;48.606;13.456;2024-03-23T08:48:44;21.50;83.70
11214;DHT22;5664;48.606;13.456;2024-03-23T08:51:13;21.30;83.10
11214;DHT22;5664;48.606;13.456;2024-03-23T08:53:39;21.40;77.30
11214;DHT22;5664;48.606;13.456;2024-03-23T08:56:05;21.20;76.60
11214;DHT22;5664;48.606;13.456;2024-03-23T08:58:34;21.10;78.60
11214;DHT22;5664;48.606;13.456;2024-03-23T09:01:03;21.20;79.70
11214;DHT22;5664;48.606;13.456;2024-03-23T09:03:29;21.10;83.20
11214;DHT22;5664;48.606;13.456;2024-03-23T09:05:55;21.30;85.10
11214;DHT22;5664;48.606;13.456;2024-03-23T09:08:21;21.30;81.20
11214;DHT22;5664;48.606;13.456;2024-03-23T09:10:46;21.00;81.20
11214;DHT22;5664;48.606;13.456;2024-03-23T09:13:12;21.10;81.20
11214;DHT22;5664;48.606;13.456;2024-03-23T09:15:44;21.00;79.90
11214;DHT22;5664;48.606;13.456;2024-03-23T09:18:10;21.20;81.10
11214;DHT22;5664;48.606;13.456;2024-03-23T09:20:36;21.20;81.60
11214;DHT22;5664;48.606;13.456;2024-03-23T09:23:01;21.20;81.90
11214;DHT22;5664;48.606;13.456;2024-03-23T09:25:27;20.90;80.70
11214;DHT22;5664;48.606;13.456;2024-03-23T09:27:52;21.30;82.20
11214;DHT22;5664;48.606;13.456;2024-03-23T09:30:17;21.10;82.50
11214;DHT22;5664;48.606;13.456;2024-03-23T09:32:44;21.10;82.20
11214;DHT22;5664;48.606;13.456;2024-03-23T09:35:10;20.60;82.20
11214;DHT22;5664;48.606;13.456;2024-03-23T09:37:35;20.90;82.40
11214;DHT22;5664;48.606;13.456;2024-03-23T09:40:01;20.90;82.40
11214;DHT22;5664;48.606;13.456;2024-03-23T09:42:27;20.90;82.20
11214;DHT22;5664;48.606;13.456;2024-03-23T09:44:52;20.90;82.30
11214;DHT22;5664;48.606;13.456;2024-03-23T09:47:18;21.00;82.20
11214;DHT22;5664;48.606;13.456;2024-03-23T09:49:47;20.90;82.40
11214;DHT22;5664;48.606;13.456;2024-03-23T09:52:12;20.80;81.20
11214;DHT22;5664;48.606;13.456;2024-03-23T09:54:38;20.80;82.30
11214;DHT22;5664;48.606;13.456;2024-03-23T09:57:03;21.00;82.50
11214;DHT22;5664;48.606;13.456;2024-03-23T09:59:29;20.80;82.10
11214;DHT22;5664;48.606;13.456;2024-03-23T10:01:54;20.90;82.50
11214;DHT22;5664;48.606;13.456;2024-03-23T10:04:35;21.00;82.50
11214;DHT22;5664;48.606;13.456;2024-03-23T10:07:11;20.80;81.10
11214;DHT22;5664;48.606;13.456;2024-03-23T10:09:36;20.80;81.20
11214;DHT22;5664;48.606;13.456;2024-03-23T10:12:12;21.00;82.60
11214;DHT22;5664;48.606;13.456;2024-03-23T10:14:42;20.80;81.30
11214;DHT22;5664;48.606;13.456;2024-03-23T10:17:19;20.80;81.50
11214;DHT22;5664;48.606;13.456;2024-03-23T10:19:48;20.80;81.60
11214;DHT22;5664;48.606;13.456;2024-03-23T10:22:18;20.80;81.60
11214;DHT22;5664;48.606;13.456;2024-03-23T10:24:44;21.00;82.90
11214;DHT22;5664;48.606;13.456;2024-03-23T10:27:09;21.00;83.10
11214;DHT22;5664;48.606;13.456;2024-03-23T10:29:35;20.80;83.40
11214;DHT22;5664;48.606;13.456;2024-03-23T10:32:18;20.90;83.40
11214;DHT22;5664;48.606;13.456;2024-03-23T10:34:44;20.70;82.40
11214;DHT22;5664;48.606;13.456;2024-03-23T10:37:10;20.80;83.60
11214;DHT22;5664;48.606;13.456;2024-03-23T10:39:36;20.90;84.10
11214;DHT22;5664;48.606;13.456;2024-03-23T10:42:02;20.80;83.80
11214;DHT22;5664;48.606;13.456;2024-03-23T10:44:29;20.50;81.90
11214;DHT22;5664;48.606;13.456;2024-03-23T10:46:56;20.60;82.80
11214;DHT22;5664;48.606;13.456;2024-03-23T10:49:31;20.90;82.90
11214;DHT22;5664;48.606;13.456;2024-03-23T10:52:01;20.70;82.00
11214;DHT22;5664;48.606;13.456;2024-03-23T10:54:27;20.70;82.10
11214;DHT22;5664;48.606;13.456;2024-03-23T10:57:13;20.60;83.00
11214;DHT22;5664;48.606;13.456;2024-03-23T10:59:39;20.60;82.10
11214;DHT22;5664;48.606;13.456;2024-03-23T11:02:05;20.70;83.90
11214;DHT22;5664;48.606;13.456;2024-03-23T11:04:34;20.60;83.10
11214;DHT22;5664;48.606;13.456;2024-03-23T11:07:00;20.50;82.90
11214;DHT22;5664;48.606;13.456;2024-03-23T11:12:09;20.50;82.10
11214;DHT22;5664;48.606;13.456;2024-03-23T11:14:42;20.50;83.20
11214;DHT22;5664;48.606;13.456;2024-03-23T11:17:08;20.70;83.40
11214;DHT22;5664;48.606;13.456;2024-03-23T11:19:37;20.50;83.50
11214;DHT22;5664;48.606;13.456;2024-03-23T11:22:03;20.50;82.60
11214;DHT22;5664;48.606;13.456;2024-03-23T11:24:30;20.60;83.70
11214;DHT22;5664;48.606;13.456;2024-03-23T11:26:56;20.70;84.00
11214;DHT22;5664;48.606;13.456;2024-03-23T11:29:25;20.50;83.70
11214;DHT22;5664;48.606;13.456;2024-03-23T11:31:52;20.80;84.20
11214;DHT22;5664;48.606;13.456;2024-03-23T11:34:18;20.70;84.10
11214;DHT22;5664;48.606;13.456;2024-03-23T11:36:43;21.20;84.10
11214;DHT22;5664;48.606;13.456;2024-03-23T11:39:15;20.60;84.20
11214;DHT22;5664;48.606;13.456;2024-03-23T11:44:18;20.50;83.00
11214;DHT22;5664;48.606;13.456;2024-03-23T11:46:44;20.50;83.40
11214;DHT22;5664;48.606;13.456;2024-03-23T11:49:26;20.50;84.70
11214;DHT22;5664;48.606;13.456;2024-03-23T11:51:52;20.50;83.30
11214;DHT22;5664;48.606;13.456;2024-03-23T11:54:22;20.70;84.60
11214;DHT22;5664;48.606;13.456;2024-03-23T11:59:43;20.50;83.50
11214;DHT22;5664;48.606;13.456;2024-03-23T12:02:12;20.80;84.70
11214;DHT22;5664;48.606;13.456;2024-03-23T12:04:41;20.60;82.90
11214;DHT22;5664;48.606;13.456;2024-03-23T12:09:39;20.50;83.00
11214;DHT22;5664;48.606;13.456;2024-03-23T12:12:08;20.70;84.20
11214;DHT22;5664;48.606;13.456;2024-03-23T12:14:34;20.50;83.80
11214;DHT22;5664;48.606;13.456;2024-03-23T12:17:11;20.50;83.80
11214;DHT22;5664;48.606;13.456;2024-03-23T12:19:37;20.50;81.70
11214;DHT22;5664;48.606;13.456;2024-03-23T12:22:04;20.60;82.60
11214;DHT22;5664;48.606;13.456;2024-03-23T12:24:29;20.70;82.80
11214;DHT22;5664;48.606;13.456;2024-03-23T12:26:59;20.70;82.80
11214;DHT22;5664;48.606;13.456;2024-03-23T12:29:25;20.50;82.40
11214;DHT22;5664;48.606;13.456;2024-03-23T12:31:51;20.70;82.80
11214;DHT22;5664;48.606;13.456;2024-03-23T12:34:16;20.60;82.50
11214;DHT22;5664;48.606;13.456;2024-03-23T12:36:42;20.50;82.30
11214;DHT22;5664;48.606;13.456;2024-03-23T12:39:07;20.40;82.30
11214;DHT22;5664;48.606;13.456;2024-03-23T12:41:33;20.50;82.30
11214;DHT22;5664;48.606;13.456;2024-03-23T12:43:58;20.70;82.60
11214;DHT22;5664;48.606;13.456;2024-03-23T12:46:24;20.60;82.70
11214;DHT22;5664;48.606;13.456;2024-03-23T12:48:49;20.60;82.40
11214;DHT22;5664;48.606;13.456;2024-03-23T12:51:15;20.50;82.20
11214;DHT22;5664;48.606;13.456;2024-03-23T12:53:40;20.60;82.10
11214;DHT22;5664;48.606;13.456;2024-03-23T12:56:06;20.40;82.20
11214;DHT22;5664;48.606;13.456;2024-03-23T12:58:31;20.50;82.10
11214;DHT22;5664;48.606;13.456;2024-03-23T13:00:58;20.50;82.20
11214;DHT22;5664;48.606;13.456;2024-03-23T13:03:23;20.40;82.10
11214;DHT22;5664;48.606;13.456;2024-03-23T13:05:51;20.30;82.30
11214;DHT22;5664;48.606;13.456;2024-03-23T13:08:20;20.40;81.20
11214;DHT22;5664;48.606;13.456;2024-03-23T13:10:51;20.40;81.40
11214;DHT22;5664;48.606;13.456;2024-03-23T13:13:17;20.50;82.30
11214;DHT22;5664;48.606;13.456;2024-03-23T13:15:42;20.40;82.70
11214;DHT22;5664;48.606;13.456;2024-03-23T13:18:08;20.40;82.60
11214;DHT22;5664;48.606;13.456;2024-03-23T13:20:35;20.30;82.70
11214;DHT22;5664;48.606;13.456;2024-03-23T13:23:00;20.60;82.60
11214;DHT22;5664;48.606;13.456;2024-03-23T13:25:26;20.40;83.00
11214;DHT22;5664;48.606;13.456;2024-03-23T13:27:51;20.40;83.00
11214;DHT22;5664;48.606;13.456;2024-03-23T13:30:17;20.60;83.50
11214;DHT22;5664;48.606;13.456;2024-03-23T13:32:42;20.50;83.40
11214;DHT22;5664;48.606;13.456;2024-03-23T13:35:08;20.50;82.90
11214;DHT22;5664;48.606;13.456;2024-03-23T13:37:33;20.40;82.70
11214;DHT22;5664;48.606;13.456;2024-03-23T13:39:59;20.40;82.70
11214;DHT22;5664;48.606;13.456;2024-03-23T13:42:24;20.50;84.20
11214;DHT22;5664;48.606;13.456;2024-03-23T13:44:51;20.50;83.00
11214;DHT22;5664;48.606;13.456;2024-03-23T13:47:16;20.40;83.00
11214;DHT22;5664;48.606;13.456;2024-03-23T13:49:42;20.30;82.60
11214;DHT22;5664;48.606;13.456;2024-03-23T13:52:07;20.30;82.50
11214;DHT22;5664;48.606;13.456;2024-03-23T13:54:33;20.30;82.50
11214;DHT22;5664;48.606;13.456;2024-03-23T13:56:58;20.50;82.80
11214;DHT22;5664;48.606;13.456;2024-03-23T13:59:24;20.50;82.80
11214;DHT22;5664;48.606;13.456;2024-03-23T14:01:50;20.30;82.70
11214;DHT22;5664;48.606;13.456;2024-03-23T14:04:16;20.40;82.60
11214;DHT22;5664;48.606;13.456;2024-03-23T14:06:45;20.50;82.10
11214;DHT22;5664;48.606;13.456;2024-03-23T14:09:14;20.30;82.70
11214;DHT22;5664;48.606;13.456;2024-03-23T14:11:40;20.30;82.30
11214;DHT22;5664;48.606;13.456;2024-03-23T14:14:08;20.40;82.70
11214;DHT22;5664;48.606;13.456;2024-03-23T14:16:33;20.40;82.70
11214;DHT22;5664;48.606;13.456;2024-03-23T14:18:59;20.40;83.00
11214;DHT22;5664;48.606;13.456;2024-03-23T14:21:25;20.50;86.90
11214;DHT22;5664;48.606;13.456;2024-03-23T14:23:50;20.40;82.80
11214;DHT22;5664;48.606;13.456;2024-03-23T14:26:16;20.50;82.70
11214;DHT22;5664;48.606;13.456;2024-03-23T14:28:41;20.50;82.90
11214;DHT22;5664;48.606;13.456;2024-03-23T14:31:07;20.30;82.70
11214;DHT22;5664;48.606;13.456;2024-03-23T14:33:38;20.40;81.90
11214;DHT22;5664;48.606;13.456;2024-03-23T14:36:07;20.40;82.60
11214;DHT22;5664;48.606;13.456;2024-03-23T14:38:32;20.30;82.40
11214;DHT22;5664;48.606;13.456;2024-03-23T14:41:00;20.20;82.50
11214;DHT22;5664;48.606;13.456;2024-03-23T14:43:28;20.50;82.50
11214;DHT22;5664;48.606;13.456;2024-03-23T14:46:10;20.20;82.50
11214;DHT22;5664;48.606;13.456;2024-03-23T14:48:36;20.20;81.70
11214;DHT22;5664;48.606;13.456;2024-03-23T14:51:02;20.10;81.70
11214;DHT22;5664;48.606;13.456;2024-03-23T14:53:31;20.20;82.40
11214;DHT22;5664;48.606;13.456;2024-03-23T14:55:56;20.50;82.60
11214;DHT22;5664;48.606;13.456;2024-03-23T14:58:22;20.30;82.90
11214;DHT22;5664;48.606;13.456;2024-03-23T15:00:48;20.30;83.00
11214;DHT22;5664;48.606;13.456;2024-03-23T15:03:14;20.10;82.10
11214;DHT22;5664;48.606;13.456;2024-03-23T15:05:39;20.20;83.30
11214;DHT22;5664;48.606;13.456;2024-03-23T15:08:05;20.20;83.80
11214;DHT22;5664;48.606;13.456;2024-03-23T15:10:32;20.20;83.50
11214;DHT22;5664;48.606;13.456;2024-03-23T15:12:58;20.30;83.40
11214;DHT22;5664;48.606;13.456;2024-03-23T15:15:23;20.30;83.90
11214;DHT22;5664;48.606;13.456;2024-03-23T15:17:49;20.10;81.70
11214;DHT22;5664;48.606;13.456;2024-03-23T15:20:15;20.30;82.80
11214;DHT22;5664;48.606;13.456;2024-03-23T15:22:41;20.20;82.80
11214;DHT22;5664;48.606;13.456;2024-03-23T15:25:07;20.30;83.00
11214;DHT22;5664;48.606;13.456;2024-03-23T15:27:33;20.10;81.60
11214;DHT22;5664;48.606;13.456;2024-03-23T15:29:59;20.30;82.70
11214;DHT22;5664;48.606;13.456;2024-03-23T15:32:25;20.60;83.30
11214;DHT22;5664;48.606;13.456;2024-03-23T15:34:50;20.30;82.80
11214;DHT22;5664;48.606;13.456;2024-03-23T15:37:15;20.40;82.80
11214;DHT22;5664;48.606;13.456;2024-03-23T15:39:41;20.10;82.50
11214;DHT22;5664;48.606;13.456;2024-03-23T15:42:07;20.40;82.50
11214;DHT22;5664;48.606;13.456;2024-03-23T15:44:32;20.00;81.30
11214;DHT22;5664;48.606;13.456;2024-03-23T15:46:58;20.20;82.50
11214;DHT22;5664;48.606;13.456;2024-03-23T15:49:23;20.00;81.20
11214;DHT22;5664;48.606;13.456;2024-03-23T15:51:49;20.20;82.20
11214;DHT22;5664;48.606;13.456;2024-03-23T15:54:14;20.20;82.50
11214;DHT22;5664;48.606;13.456;2024-03-23T15:56:39;20.10;82.40
11214;DHT22;5664;48.606;13.456;2024-03-23T15:59:05;20.20;82.40
11214;DHT22;5664;48.606;13.456;2024-03-23T16:01:32;20.00;81.20
11214;DHT22;5664;48.606;13.456;2024-03-23T16:03:59;20.00;80.70
11214;DHT22;5664;48.606;13.456;2024-03-23T16:06:25;20.00;81.90
11214;DHT22;5664;48.606;13.456;2024-03-23T16:08:50;20.00;81.50
11214;DHT22;5664;48.606;13.456;2024-03-23T16:11:17;20.10;81.50
11214;DHT22;5664;48.606;13.456;2024-03-23T16:13:43;20.10;81.70
11214;DHT22;5664;48.606;13.456;2024-03-23T16:16:08;20.10;81.50
11214;DHT22;5664;48.606;13.456;2024-03-23T16:18:35;19.50;81.20
11214;DHT22;5664;48.606;13.456;2024-03-23T16:21:02;19.90;81.20
11214;DHT22;5664;48.606;13.456;2024-03-23T16:23:27;20.00;81.50
11214;DHT22;5664;48.606;13.456;2024-03-23T16:25:53;20.10;81.60